sensor_id;sensor_type;location;lat;lon;timestamp;pressure;altitude;pressure_sealevel;temperature;humidity
8059;BME280;4072;42.668;23.396;2023-06-10T00:00:52;94711.72;;;18.48;100.00
8059;BME280;4072;42.668;23.396;2023-06-10T00:03:20;94720.91;;;18.56;100.00
8059;BME280;4072;42.668;23.396;2023-06-10T00:05:50;94722.13;;;18.55;100.00
8059;BME280;4072;42.668;23.396;2023-06-10T00:08:20;94724.97;;;18.38;100.00
8059;BME280;4072;42.668;23.396;2023-06-10T00:10:49;94723.78;;;18.12;100.00
8059;BME280;4072;42.668;23.396;2023-06-10T00:13:17;94725.84;;;17.95;100.00
8059;BME280;4072;42.668;23.396;2023-06-10T00:15:45;94732.09;;;17.79;100.00
8059;BME280;4072;42.668;23.396;2023-06-10T00:18:13;94735.38;;;17.66;100.00
8059;BME280;4072;42.668;23.396;2023-06-10T00:20:44;94739.34;;;17.60;100.00
8059;BME280;4072;42.668;23.396;2023-06-10T00:23:12;94731.41;;;17.56;100.00
8059;BME280;4072;42.668;23.396;2023-06-10T00:25:42;94726.94;;;17.48;100.00
8059;BME280;4072;42.668;23.396;2023-06-10T00:28:11;94721.94;;;17.40;100.00
8059;BME280;4072;42.668;23.396;2023-06-10T00:30:40;94726.91;;;17.36;100.00
8059;BME280;4072;42.668;23.396;2023-06-10T00:33:08;94722.22;;;17.42;100.00
8059;BME280;4072;42.668;23.396;2023-06-10T00:35:37;94733.88;;;17.60;100.00
8059;BME280;4072;42.668;23.396;2023-06-10T00:38:05;94737.84;;;17.70;100.00
8059;BME280;4072;42.668;23.396;2023-06-10T00:40:39;94698.56;;;17.62;100.00
8059;BME280;4072;42.668;23.396;2023-06-10T00:43:09;94727.56;;;18.03;100.00
8059;BME280;4072;42.668;23.396;2023-06-10T00:45:38;94729.25;;;18.12;100.00
8059;BME280;4072;42.668;23.396;2023-06-10T00:48:06;94731.25;;;18.17;100.00
8059;BME280;4072;42.668;23.396;2023-06-10T00:50:35;94734.69;;;18.23;100.00
8059;BME280;4072;42.668;23.396;2023-06-10T00:53:06;94713.28;;;18.27;100.00
8059;BME280;4072;42.668;23.396;2023-06-10T00:55:34;94684.75;;;18.00;100.00
8059;BME280;4072;42.668;23.396;2023-06-10T00:58:03;94730.44;;;18.38;100.00
8059;BME280;4072;42.668;23.396;2023-06-10T01:00:33;94730.41;;;18.44;100.00
8059;BME280;4072;42.668;23.396;2023-06-10T01:03:01;94736.66;;;18.39;100.00
8059;BME280;4072;42.668;23.396;2023-06-10T01:05:35;94738.88;;;18.46;100.00
8059;BME280;4072;42.668;23.396;2023-06-10T01:08:09;94733.94;;;18.39;100.00
8059;BME280;4072;42.668;23.396;2023-06-10T01:10:45;94746.84;;;18.33;100.00
8059;BME280;4072;42.668;23.396;2023-06-10T01:13:16;94736.44;;;18.26;100.00
8059;BME280;4072;42.668;23.396;2023-06-10T01:15:46;94737.94;;;18.21;100.00
8059;BME280;4072;42.668;23.396;2023-06-10T01:18:14;94740.00;;;18.10;100.00
8059;BME280;4072;42.668;23.396;2023-06-10T01:20:45;94747.38;;;18.26;100.00
8059;BME280;4072;42.668;23.396;2023-06-10T01:23:18;94752.28;;;18.49;100.00
8059;BME280;4072;42.668;23.396;2023-06-10T01:25:51;94734.88;;;18.47;100.00
8059;BME280;4072;42.668;23.396;2023-06-10T01:28:25;94738.16;;;18.40;100.00
8059;BME280;4072;42.668;23.396;2023-06-10T01:30:59;94739.63;;;18.41;100.00
8059;BME280;4072;42.668;23.396;2023-06-10T01:33:36;94719.44;;;18.44;100.00
8059;BME280;4072;42.668;23.396;2023-06-10T01:36:06;94741.78;;;18.59;100.00
8059;BME280;4072;42.668;23.396;2023-06-10T01:38:40;94743.03;;;18.58;100.00
8059;BME280;4072;42.668;23.396;2023-06-10T01:41:13;94732.31;;;18.65;100.00
8059;BME280;4072;42.668;23.396;2023-06-10T01:43:44;94740.22;;;18.69;100.00
8059;BME280;4072;42.668;23.396;2023-06-10T01:46:13;94704.72;;;18.52;100.00
8059;BME280;4072;42.668;23.396;2023-06-10T01:48:42;94723.56;;;18.67;100.00
8059;BME280;4072;42.668;23.396;2023-06-10T01:51:10;94729.59;;;18.60;100.00
8059;BME280;4072;42.668;23.396;2023-06-10T01:53:41;94735.50;;;18.69;100.00
8059;BME280;4072;42.668;23.396;2023-06-10T01:56:09;94690.47;;;18.59;100.00
8059;BME280;4072;42.668;23.396;2023-06-10T01:58:43;94714.28;;;18.81;100.00
8059;BME280;4072;42.668;23.396;2023-06-10T02:01:13;94722.69;;;18.88;100.00
8059;BME280;4072;42.668;23.396;2023-06-10T02:03:43;94716.47;;;18.88;100.00
8059;BME280;4072;42.668;23.396;2023-06-10T02:06:11;94711.63;;;19.05;100.00
8059;BME280;4072;42.668;23.396;2023-06-10T02:08:40;94727.06;;;19.02;100.00
8059;BME280;4072;42.668;23.396;2023-06-10T02:11:08;94727.34;;;18.99;100.00
8059;BME280;4072;42.668;23.396;2023-06-10T02:13:38;94711.47;;;18.92;100.00
8059;BME280;4072;42.668;23.396;2023-06-10T02:16:06;94717.00;;;18.81;100.00
8059;BME280;4072;42.668;23.396;2023-06-10T02:18:36;94711.59;;;18.70;100.00
8059;BME280;4072;42.668;23.396;2023-06-10T02:21:05;94709.63;;;18.65;100.00
8059;BME280;4072;42.668;23.396;2023-06-10T02:23:33;94711.94;;;18.55;100.00
8059;BME280;4072;42.668;23.396;2023-06-10T02:26:03;94712.16;;;18.63;100.00
8059;BME280;4072;42.668;23.396;2023-06-10T02:28:32;94708.91;;;18.64;100.00
8059;BME280;4072;42.668;23.396;2023-06-10T02:31:00;94697.47;;;18.55;100.00
8059;BME280;4072;42.668;23.396;2023-06-10T02:33:28;94709.16;;;18.61;100.00
8059;BME280;4072;42.668;23.396;2023-06-10T02:35:57;94697.19;;;18.64;100.00
8059;BME280;4072;42.668;23.396;2023-06-10T02:38:25;94694.81;;;18.44;100.00
8059;BME280;4072;42.668;23.396;2023-06-10T02:40:54;94696.84;;;18.38;100.00
8059;BME280;4072;42.668;23.396;2023-06-10T02:43:24;94701.31;;;18.30;100.00
8059;BME280;4072;42.668;23.396;2023-06-10T02:45:52;94699.34;;;18.36;100.00
8059;BME280;4072;42.668;23.396;2023-06-10T02:48:23;94707.78;;;18.38;100.00
8059;BME280;4072;42.668;23.396;2023-06-10T02:50:52;94705.84;;;18.22;100.00
8059;BME280;4072;42.668;23.396;2023-06-10T02:53:20;94702.31;;;18.27;100.00
8059;BME280;4072;42.668;23.396;2023-06-10T02:55:49;94703.03;;;18.44;100.00
8059;BME280;4072;42.668;23.396;2023-06-10T02:58:17;94694.03;;;18.49;100.00
8059;BME280;4072;42.668;23.396;2023-06-10T03:00:46;94691.06;;;18.47;100.00
8059;BME280;4072;42.668;23.396;2023-06-10T03:03:15;94686.31;;;18.53;100.00
8059;BME280;4072;42.668;23.396;2023-06-10T03:05:43;94683.31;;;18.51;100.00
8059;BME280;4072;42.668;23.396;2023-06-10T03:08:12;94689.53;;;18.51;100.00
8059;BME280;4072;42.668;23.396;2023-06-10T03:10:40;94671.19;;;18.35;100.00
8059;BME280;4072;42.668;23.396;2023-06-10T03:13:08;94697.25;;;18.53;100.00
8059;BME280;4072;42.668;23.396;2023-06-10T03:15:37;94700.22;;;18.55;100.00
8059;BME280;4072;42.668;23.396;2023-06-10T03:18:09;94700.22;;;18.55;100.00
8059;BME280;4072;42.668;23.396;2023-06-10T03:20:37;94685.34;;;18.45;100.00
8059;BME280;4072;42.668;23.396;2023-06-10T03:23:06;94691.84;;;18.42;100.00
8059;BME280;4072;42.668;23.396;2023-06-10T03:25:35;94699.81;;;18.40;100.00
8059;BME280;4072;42.668;23.396;2023-06-10T03:28:03;94700.28;;;18.44;100.00
8059;BME280;4072;42.668;23.396;2023-06-10T03:30:32;94709.69;;;18.54;100.00
8059;BME280;4072;42.668;23.396;2023-06-10T03:33:00;94715.69;;;18.52;100.00
8059;BME280;4072;42.668;23.396;2023-06-10T03:35:30;94713.91;;;18.55;100.00
8059;BME280;4072;42.668;23.396;2023-06-10T03:37:59;94718.69;;;18.49;100.00
8059;BME280;4072;42.668;23.396;2023-06-10T03:40:28;94724.72;;;18.42;100.00
8059;BME280;4072;42.668;23.396;2023-06-10T03:42:57;94718.75;;;18.27;100.00
8059;BME280;4072;42.668;23.396;2023-06-10T03:45:25;94725.88;;;17.84;100.00
8059;BME280;4072;42.668;23.396;2023-06-10T03:47:55;94734.38;;;17.52;100.00
8059;BME280;4072;42.668;23.396;2023-06-10T03:50:24;94733.38;;;17.33;100.00
8059;BME280;4072;42.668;23.396;2023-06-10T03:52:54;94651.13;;;16.60;100.00
8059;BME280;4072;42.668;23.396;2023-06-10T03:55:22;94739.84;;;17.08;100.00
8059;BME280;4072;42.668;23.396;2023-06-10T03:57:51;94745.78;;;17.01;100.00
8059;BME280;4072;42.668;23.396;2023-06-10T04:00:20;94740.81;;;16.94;100.00
8059;BME280;4072;42.668;23.396;2023-06-10T04:02:49;94733.88;;;16.88;100.00
8059;BME280;4072;42.668;23.396;2023-06-10T04:05:19;94716.22;;;16.78;100.00
8059;BME280;4072;42.668;23.396;2023-06-10T04:07:49;94708.78;;;16.84;100.00
8059;BME280;4072;42.668;23.396;2023-06-10T04:10:21;94747.53;;;17.15;100.00
8059;BME280;4072;42.668;23.396;2023-06-10T04:12:50;94752.28;;;17.31;100.00
8059;BME280;4072;42.668;23.396;2023-06-10T04:15:19;94743.81;;;17.29;100.00
8059;BME280;4072;42.668;23.396;2023-06-10T04:17:48;94758.75;;;17.51;100.00
8059;BME280;4072;42.668;23.396;2023-06-10T04:20:16;94748.06;;;17.58;100.00
8059;BME280;4072;42.668;23.396;2023-06-10T04:22:45;94748.28;;;17.66;100.00
8059;BME280;4072;42.668;23.396;2023-06-10T04:25:13;94751.28;;;17.68;100.00
8059;BME280;4072;42.668;23.396;2023-06-10T04:27:44;94732.88;;;17.52;100.00
8059;BME280;4072;42.668;23.396;2023-06-10T04:30:13;94750.53;;;17.51;100.00
8059;BME280;4072;42.668;23.396;2023-06-10T04:32:42;94747.31;;;17.58;100.00
8059;BME280;4072;42.668;23.396;2023-06-10T04:35:11;94751.03;;;17.66;100.00
8059;BME280;4072;42.668;23.396;2023-06-10T04:37:40;94742.56;;;17.69;100.00
8059;BME280;4072;42.668;23.396;2023-06-10T04:40:08;94747.78;;;17.73;100.00
8059;BME280;4072;42.668;23.396;2023-06-10T04:42:37;94745.31;;;17.64;100.00
8059;BME280;4072;42.668;23.396;2023-06-10T04:45:09;94743.59;;;17.55;100.00
8059;BME280;4072;42.668;23.396;2023-06-10T04:47:37;94740.59;;;17.53;100.00
8059;BME280;4072;42.668;23.396;2023-06-10T04:50:06;94698.84;;;17.19;100.00
8059;BME280;4072;42.668;23.396;2023-06-10T04:52:35;94725.91;;;17.39;100.00
8059;BME280;4072;42.668;23.396;2023-06-10T04:55:03;94742.84;;;17.55;100.00
8059;BME280;4072;42.668;23.396;2023-06-10T04:57:33;94738.09;;;17.66;100.00
8059;BME280;4072;42.668;23.396;2023-06-10T05:00:02;94737.81;;;17.81;100.00
8059;BME280;4072;42.668;23.396;2023-06-10T05:02:34;94737.25;;;17.99;100.00
8059;BME280;4072;42.668;23.396;2023-06-10T05:05:03;94729.81;;;17.94;100.00
8059;BME280;4072;42.668;23.396;2023-06-10T05:07:31;94724.84;;;17.98;100.00
8059;BME280;4072;42.668;23.396;2023-06-10T05:09:59;94731.78;;;18.10;100.00
8059;BME280;4072;42.668;23.396;2023-06-10T05:12:28;94726.97;;;18.21;100.00
8059;BME280;4072;42.668;23.396;2023-06-10T05:14:56;94730.69;;;18.35;100.00
8059;BME280;4072;42.668;23.396;2023-06-10T05:17:24;94732.91;;;18.47;100.00
8059;BME280;4072;42.668;23.396;2023-06-10T05:19:57;94729.81;;;18.62;100.00
8059;BME280;4072;42.668;23.396;2023-06-10T05:22:25;94715.56;;;18.69;100.00
8059;BME280;4072;42.668;23.396;2023-06-10T05:24:54;94724.50;;;18.75;100.00
8059;BME280;4072;42.668;23.396;2023-06-10T05:27:24;94723.75;;;18.74;100.00
8059;BME280;4072;42.668;23.396;2023-06-10T05:29:52;94721.94;;;18.88;100.00
8059;BME280;4072;42.668;23.396;2023-06-10T05:32:21;94723.44;;;18.89;100.00
8059;BME280;4072;42.668;23.396;2023-06-10T05:34:49;94716.66;;;18.95;100.00
8059;BME280;4072;42.668;23.396;2023-06-10T05:37:18;94695.56;;;18.85;100.00
8059;BME280;4072;42.668;23.396;2023-06-10T05:39:48;94713.00;;;18.82;100.00
8059;BME280;4072;42.668;23.396;2023-06-10T05:42:16;94724.28;;;19.08;100.00
8059;BME280;4072;42.668;23.396;2023-06-10T05:44:45;94721.72;;;19.21;100.00
8059;BME280;4072;42.668;23.396;2023-06-10T05:47:13;94706.56;;;19.14;100.00
8059;BME280;4072;42.668;23.396;2023-06-10T05:49:41;94663.38;;;18.91;100.00
8059;BME280;4072;42.668;23.396;2023-06-10T05:52:12;94737.63;;;19.28;100.00
8059;BME280;4072;42.668;23.396;2023-06-10T05:54:42;94718.03;;;19.48;100.00
8059;BME280;4072;42.668;23.396;2023-06-10T05:57:11;94736.31;;;19.64;100.00
8059;BME280;4072;42.668;23.396;2023-06-10T05:59:40;94685.47;;;19.33;100.00
8059;BME280;4072;42.668;23.396;2023-06-10T06:02:08;94733.41;;;19.80;100.00
8059;BME280;4072;42.668;23.396;2023-06-10T06:04:36;94739.41;;;20.03;100.00
8059;BME280;4072;42.668;23.396;2023-06-10T06:07:05;94751.06;;;20.14;100.00
8059;BME280;4072;42.668;23.396;2023-06-10T06:09:33;94740.91;;;20.28;100.00
8059;BME280;4072;42.668;23.396;2023-06-10T06:12:04;94736.41;;;20.31;100.00
8059;BME280;4072;42.668;23.396;2023-06-10T06:14:32;94717.97;;;20.26;100.00
8059;BME280;4072;42.668;23.396;2023-06-10T06:17:05;94725.22;;;20.47;100.00
8059;BME280;4072;42.668;23.396;2023-06-10T06:19:33;94728.09;;;20.36;100.00
8059;BME280;4072;42.668;23.396;2023-06-10T06:22:02;94726.00;;;20.42;100.00
8059;BME280;4072;42.668;23.396;2023-06-10T06:24:30;94727.06;;;20.58;100.00
8059;BME280;4072;42.668;23.396;2023-06-10T06:26:59;94720.91;;;20.70;100.00
8059;BME280;4072;42.668;23.396;2023-06-10T06:29:28;94722.75;;;20.62;100.00
8059;BME280;4072;42.668;23.396;2023-06-10T06:31:58;94731.50;;;20.42;100.00
8059;BME280;4072;42.668;23.396;2023-06-10T06:34:26;94692.75;;;20.27;100.00
8059;BME280;4072;42.668;23.396;2023-06-10T06:36:54;94735.53;;;20.60;100.00
8059;BME280;4072;42.668;23.396;2023-06-10T06:39:22;94733.97;;;20.46;100.00
8059;BME280;4072;42.668;23.396;2023-06-10T06:41:51;94729.34;;;20.35;100.00
8059;BME280;4072;42.668;23.396;2023-06-10T06:44:19;94717.47;;;20.27;100.00
8059;BME280;4072;42.668;23.396;2023-06-10T06:46:49;94723.84;;;20.35;100.00
8059;BME280;4072;42.668;23.396;2023-06-10T06:49:17;94718.81;;;20.39;100.00
8059;BME280;4072;42.668;23.396;2023-06-10T06:51:47;94724.09;;;20.56;100.00
8059;BME280;4072;42.668;23.396;2023-06-10T06:54:15;94717.63;;;20.53;100.00
8059;BME280;4072;42.668;23.396;2023-06-10T06:56:44;94716.63;;;20.32;100.00
8059;BME280;4072;42.668;23.396;2023-06-10T06:59:13;94725.00;;;20.21;100.00
8059;BME280;4072;42.668;23.396;2023-06-10T07:01:41;94717.34;;;20.14;100.00
8059;BME280;4072;42.668;23.396;2023-06-10T07:04:11;94721.41;;;20.32;100.00
8059;BME280;4072;42.668;23.396;2023-06-10T07:06:39;94717.84;;;20.37;100.00
8059;BME280;4072;42.668;23.396;2023-06-10T07:09:08;94712.78;;;20.41;100.00
8059;BME280;4072;42.668;23.396;2023-06-10T07:11:36;94710.56;;;20.39;100.00
8059;BME280;4072;42.668;23.396;2023-06-10T07:14:06;94705.75;;;20.45;100.00
8059;BME280;4072;42.668;23.396;2023-06-10T07:16:34;94705.31;;;20.60;100.00
8059;BME280;4072;42.668;23.396;2023-06-10T07:19:02;94697.56;;;20.95;100.00
8059;BME280;4072;42.668;23.396;2023-06-10T07:21:33;94700.88;;;21.25;100.00
8059;BME280;4072;42.668;23.396;2023-06-10T07:24:03;94694.41;;;21.67;100.00
8059;BME280;4072;42.668;23.396;2023-06-10T07:26:33;94692.56;;;21.88;100.00
8059;BME280;4072;42.668;23.396;2023-06-10T07:29:01;94692.22;;;22.05;100.00
8059;BME280;4072;42.668;23.396;2023-06-10T07:31:29;94639.53;;;21.43;100.00
8059;BME280;4072;42.668;23.396;2023-06-10T07:33:57;94685.41;;;21.67;100.00
8059;BME280;4072;42.668;23.396;2023-06-10T07:36:26;94687.06;;;21.57;100.00
8059;BME280;4072;42.668;23.396;2023-06-10T07:38:57;94679.53;;;21.44;100.00
8059;BME280;4072;42.668;23.396;2023-06-10T07:41:25;94685.97;;;21.34;100.00
8059;BME280;4072;42.668;23.396;2023-06-10T07:43:54;94690.72;;;21.33;100.00
8059;BME280;4072;42.668;23.396;2023-06-10T07:46:23;94682.66;;;21.22;100.00
8059;BME280;4072;42.668;23.396;2023-06-10T07:48:54;94654.75;;;21.00;100.00
8059;BME280;4072;42.668;23.396;2023-06-10T07:51:23;94685.88;;;21.52;100.00
8059;BME280;4072;42.668;23.396;2023-06-10T07:53:51;94652.06;;;21.70;100.00
8059;BME280;4072;42.668;23.396;2023-06-10T07:56:21;94687.00;;;22.53;100.00
8059;BME280;4072;42.668;23.396;2023-06-10T07:58:49;94683.88;;;22.70;100.00
8059;BME280;4072;42.668;23.396;2023-06-10T08:01:17;94696.78;;;23.22;100.00
8059;BME280;4072;42.668;23.396;2023-06-10T08:03:45;94668.75;;;23.38;100.00
8059;BME280;4072;42.668;23.396;2023-06-10T08:06:13;94685.41;;;23.46;100.00
8059;BME280;4072;42.668;23.396;2023-06-10T08:08:43;94617.66;;;23.45;92.09
8059;BME280;4072;42.668;23.396;2023-06-10T08:11:13;94693.47;;;24.13;91.57
8059;BME280;4072;42.668;23.396;2023-06-10T08:13:42;94690.66;;;24.76;84.73
8059;BME280;4072;42.668;23.396;2023-06-10T08:16:11;94688.38;;;25.18;77.85
8059;BME280;4072;42.668;23.396;2023-06-10T08:18:39;94677.91;;;25.39;72.08
8059;BME280;4072;42.668;23.396;2023-06-10T08:21:08;94683.81;;;25.73;68.79
8059;BME280;4072;42.668;23.396;2023-06-10T08:23:36;94677.38;;;25.63;71.34
8059;BME280;4072;42.668;23.396;2023-06-10T08:26:04;94674.75;;;25.65;68.10
8059;BME280;4072;42.668;23.396;2023-06-10T08:28:33;94666.47;;;25.50;68.42
8059;BME280;4072;42.668;23.396;2023-06-10T08:31:03;94677.88;;;25.24;68.84
8059;BME280;4072;42.668;23.396;2023-06-10T08:33:31;94668.09;;;25.38;71.63
8059;BME280;4072;42.668;23.396;2023-06-10T08:36:00;94668.28;;;25.85;69.88
8059;BME280;4072;42.668;23.396;2023-06-10T08:38:28;94662.75;;;26.00;67.07
8059;BME280;4072;42.668;23.396;2023-06-10T08:40:59;94646.97;;;26.25;63.84
8059;BME280;4072;42.668;23.396;2023-06-10T08:43:32;94664.97;;;26.09;62.09
8059;BME280;4072;42.668;23.396;2023-06-10T08:46:03;94666.03;;;26.14;57.21
8059;BME280;4072;42.668;23.396;2023-06-10T08:48:34;94657.16;;;26.15;58.02
8059;BME280;4072;42.668;23.396;2023-06-10T08:51:06;94667.09;;;26.33;57.12
8059;BME280;4072;42.668;23.396;2023-06-10T08:53:36;94669.88;;;26.33;59.27
8059;BME280;4072;42.668;23.396;2023-06-10T08:56:05;94656.69;;;26.64;58.90
8059;BME280;4072;42.668;23.396;2023-06-10T08:58:34;94647.38;;;26.76;56.77
8059;BME280;4072;42.668;23.396;2023-06-10T09:01:09;94648.72;;;26.60;57.27
8059;BME280;4072;42.668;23.396;2023-06-10T09:03:38;94647.16;;;26.27;58.80
8059;BME280;4072;42.668;23.396;2023-06-10T09:06:07;94627.63;;;25.95;61.59
8059;BME280;4072;42.668;23.396;2023-06-10T09:08:37;94644.91;;;26.33;61.24
8059;BME280;4072;42.668;23.396;2023-06-10T09:11:06;94643.72;;;26.66;57.08
8059;BME280;4072;42.668;23.396;2023-06-10T09:13:34;94638.31;;;27.00;57.08
8059;BME280;4072;42.668;23.396;2023-06-10T09:16:03;94641.81;;;27.40;56.37
8059;BME280;4072;42.668;23.396;2023-06-10T09:18:33;94636.88;;;27.56;54.89
8059;BME280;4072;42.668;23.396;2023-06-10T09:21:02;94635.47;;;27.64;54.57
8059;BME280;4072;42.668;23.396;2023-06-10T09:23:30;94631.94;;;27.22;58.91
8059;BME280;4072;42.668;23.396;2023-06-10T09:25:59;94639.06;;;27.01;58.98
8059;BME280;4072;42.668;23.396;2023-06-10T09:28:27;94618.84;;;26.83;57.82
8059;BME280;4072;42.668;23.396;2023-06-10T09:31:03;94634.34;;;26.86;60.16
8059;BME280;4072;42.668;23.396;2023-06-10T09:33:36;94622.63;;;26.63;57.56
8059;BME280;4072;42.668;23.396;2023-06-10T09:36:06;94632.75;;;26.29;56.45
8059;BME280;4072;42.668;23.396;2023-06-10T09:38:34;94635.81;;;26.40;56.61
8059;BME280;4072;42.668;23.396;2023-06-10T09:41:03;94619.19;;;26.40;55.17
8059;BME280;4072;42.668;23.396;2023-06-10T09:43:40;94633.72;;;26.63;55.44
8059;BME280;4072;42.668;23.396;2023-06-10T09:46:14;94618.56;;;26.57;55.67
8059;BME280;4072;42.668;23.396;2023-06-10T09:48:46;94627.75;;;26.74;56.53
8059;BME280;4072;42.668;23.396;2023-06-10T09:51:15;94618.56;;;26.64;55.40
8059;BME280;4072;42.668;23.396;2023-06-10T09:53:48;94617.50;;;26.45;60.00
8059;BME280;4072;42.668;23.396;2023-06-10T09:56:17;94567.41;;;26.03;61.58
8059;BME280;4072;42.668;23.396;2023-06-10T09:58:46;94573.69;;;26.04;60.95
8059;BME280;4072;42.668;23.396;2023-06-10T10:01:14;94609.53;;;26.02;63.30
8059;BME280;4072;42.668;23.396;2023-06-10T10:03:45;94608.63;;;25.99;61.21
8059;BME280;4072;42.668;23.396;2023-06-10T10:06:15;94597.88;;;26.50;60.68
8059;BME280;4072;42.668;23.396;2023-06-10T10:08:44;94599.09;;;27.04;60.44
8059;BME280;4072;42.668;23.396;2023-06-10T10:11:14;94556.19;;;26.65;57.61
8059;BME280;4072;42.668;23.396;2023-06-10T10:13:45;94595.41;;;27.01;57.28
8059;BME280;4072;42.668;23.396;2023-06-10T10:16:18;94570.44;;;27.18;60.30
8059;BME280;4072;42.668;23.396;2023-06-10T10:18:52;94590.06;;;27.20;56.86
8059;BME280;4072;42.668;23.396;2023-06-10T10:21:23;94587.53;;;27.15;57.40
8059;BME280;4072;42.668;23.396;2023-06-10T10:23:53;94571.59;;;27.15;58.53
8059;BME280;4072;42.668;23.396;2023-06-10T10:26:26;94536.97;;;26.92;57.21
8059;BME280;4072;42.668;23.396;2023-06-10T10:29:08;94566.03;;;26.66;57.88
8059;BME280;4072;42.668;23.396;2023-06-10T10:31:39;94584.63;;;26.41;57.94
8059;BME280;4072;42.668;23.396;2023-06-10T10:34:13;94563.03;;;26.25;59.12
8059;BME280;4072;42.668;23.396;2023-06-10T10:36:44;94576.66;;;26.38;60.10
8059;BME280;4072;42.668;23.396;2023-06-10T10:39:15;94576.03;;;26.54;61.09
8059;BME280;4072;42.668;23.396;2023-06-10T10:41:46;94580.31;;;26.55;58.55
8059;BME280;4072;42.668;23.396;2023-06-10T10:44:18;94577.00;;;26.49;59.33
8059;BME280;4072;42.668;23.396;2023-06-10T10:46:49;94576.78;;;26.55;59.77
8059;BME280;4072;42.668;23.396;2023-06-10T10:49:20;94566.88;;;26.76;56.22
8059;BME280;4072;42.668;23.396;2023-06-10T10:51:57;94568.63;;;26.64;57.87
8059;BME280;4072;42.668;23.396;2023-06-10T10:54:29;94556.63;;;26.54;54.67
8059;BME280;4072;42.668;23.396;2023-06-10T10:57:15;94566.03;;;26.66;56.07
8059;BME280;4072;42.668;23.396;2023-06-10T10:59:45;94517.19;;;26.63;56.70
8059;BME280;4072;42.668;23.396;2023-06-10T11:02:17;94554.59;;;27.11;55.60
8059;BME280;4072;42.668;23.396;2023-06-10T11:04:48;94557.66;;;26.98;54.47
8059;BME280;4072;42.668;23.396;2023-06-10T11:07:20;94552.66;;;27.21;53.07
8059;BME280;4072;42.668;23.396;2023-06-10T11:09:57;94557.09;;;27.24;54.68
8059;BME280;4072;42.668;23.396;2023-06-10T11:12:40;94555.06;;;27.25;50.62
8059;BME280;4072;42.668;23.396;2023-06-10T11:15:09;94483.13;;;26.70;50.12
8059;BME280;4072;42.668;23.396;2023-06-10T11:17:37;94542.94;;;27.37;51.98
8059;BME280;4072;42.668;23.396;2023-06-10T11:20:08;94535.13;;;27.77;50.57
8059;BME280;4072;42.668;23.396;2023-06-10T11:22:58;94501.25;;;27.13;50.63
8059;BME280;4072;42.668;23.396;2023-06-10T11:25:38;94531.16;;;26.80;51.58
8059;BME280;4072;42.668;23.396;2023-06-10T11:28:17;94535.56;;;26.83;51.81
8059;BME280;4072;42.668;23.396;2023-06-10T11:30:57;94533.13;;;26.87;53.29
8059;BME280;4072;42.668;23.396;2023-06-10T11:33:25;94522.66;;;26.78;53.51
8059;BME280;4072;42.668;23.396;2023-06-10T11:35:56;94523.16;;;26.52;55.50
8059;BME280;4072;42.668;23.396;2023-06-10T11:38:25;94528.09;;;26.29;55.85
8059;BME280;4072;42.668;23.396;2023-06-10T11:40:53;94524.44;;;26.19;56.12
8059;BME280;4072;42.668;23.396;2023-06-10T11:43:22;94516.72;;;26.10;57.97
8059;BME280;4072;42.668;23.396;2023-06-10T11:45:54;94412.13;;;25.71;57.99
8059;BME280;4072;42.668;23.396;2023-06-10T11:48:25;94516.94;;;26.44;55.42
8059;BME280;4072;42.668;23.396;2023-06-10T11:50:56;94505.47;;;26.40;51.74
8059;BME280;4072;42.668;23.396;2023-06-10T11:53:25;94504.00;;;26.39;50.82
8059;BME280;4072;42.668;23.396;2023-06-10T11:55:53;94504.25;;;26.26;51.44
8059;BME280;4072;42.668;23.396;2023-06-10T11:58:22;94502.19;;;26.34;51.13
8059;BME280;4072;42.668;23.396;2023-06-10T12:00:52;94500.97;;;26.52;51.19
8059;BME280;4072;42.668;23.396;2023-06-10T12:03:21;94508.38;;;27.06;50.57
8059;BME280;4072;42.668;23.396;2023-06-10T12:05:59;94513.22;;;27.47;48.77
8059;BME280;4072;42.668;23.396;2023-06-10T12:08:27;94506.69;;;28.03;47.92
8059;BME280;4072;42.668;23.396;2023-06-10T12:10:56;94486.81;;;28.34;46.93
8059;BME280;4072;42.668;23.396;2023-06-10T12:13:26;94505.81;;;28.81;45.00
8059;BME280;4072;42.668;23.396;2023-06-10T12:15:55;94502.66;;;28.94;44.25
8059;BME280;4072;42.668;23.396;2023-06-10T12:18:35;94501.38;;;28.68;43.75
8059;BME280;4072;42.668;23.396;2023-06-10T12:21:15;94495.03;;;28.94;41.38
8059;BME280;4072;42.668;23.396;2023-06-10T12:24:01;94491.81;;;28.98;42.43
8059;BME280;4072;42.668;23.396;2023-06-10T12:26:38;94499.38;;;28.78;38.70
8059;BME280;4072;42.668;23.396;2023-06-10T12:29:21;94496.78;;;28.54;41.45
8059;BME280;4072;42.668;23.396;2023-06-10T12:31:55;94502.34;;;28.37;37.79
8059;BME280;4072;42.668;23.396;2023-06-10T12:34:36;94487.31;;;28.40;38.54
8059;BME280;4072;42.668;23.396;2023-06-10T12:37:10;94491.66;;;28.60;39.61
8059;BME280;4072;42.668;23.396;2023-06-10T12:39:41;94486.53;;;28.92;37.91
8059;BME280;4072;42.668;23.396;2023-06-10T12:42:13;94480.31;;;29.11;38.08
8059;BME280;4072;42.668;23.396;2023-06-10T12:44:41;94471.00;;;29.35;38.00
8059;BME280;4072;42.668;23.396;2023-06-10T12:47:09;94468.91;;;29.26;37.98
8059;BME280;4072;42.668;23.396;2023-06-10T12:49:39;94411.94;;;28.45;39.07
8059;BME280;4072;42.668;23.396;2023-06-10T12:52:09;94477.13;;;28.52;39.13
8059;BME280;4072;42.668;23.396;2023-06-10T12:54:37;94472.44;;;28.28;40.40
8059;BME280;4072;42.668;23.396;2023-06-10T12:57:06;94466.59;;;28.06;40.79
8059;BME280;4072;42.668;23.396;2023-06-10T12:59:35;94474.16;;;27.96;41.14
8059;BME280;4072;42.668;23.396;2023-06-10T13:02:04;94481.13;;;27.88;41.77
8059;BME280;4072;42.668;23.396;2023-06-10T13:04:32;94479.22;;;27.73;40.22
8059;BME280;4072;42.668;23.396;2023-06-10T13:07:00;94473.81;;;27.58;41.32
8059;BME280;4072;42.668;23.396;2023-06-10T13:09:30;94482.78;;;27.49;41.85
8059;BME280;4072;42.668;23.396;2023-06-10T13:11:58;94475.78;;;27.48;43.81
8059;BME280;4072;42.668;23.396;2023-06-10T13:14:27;94413.91;;;27.14;43.61
8059;BME280;4072;42.668;23.396;2023-06-10T13:16:56;94480.03;;;27.66;40.90
8059;BME280;4072;42.668;23.396;2023-06-10T13:19:24;94482.72;;;27.74;40.89